D39

Sauk Centre Municipal Airport

Sauk Centre, Minnesota, USA
METAR KD39 261335Z AUTO 34012KT 10SM CLR 07/01 A2987 RMK AO2 T00720009
Observed Flight Rules
Apr-26 @ 13:35 UTC (8 minutes ago) Visual Flight Rules
Wind Visibility Clouds
340° at 12 knots 10 miles
  • Clear skies
Temperatures Readings
Current 7°C / 45°F
Dewpoint 1°C / 34°F
Humidity 66%
Altimeter 29.87" Hg
Pressure 1012 hPa
Elevation 380
METAR KD39 261335Z AUTO 34012KT 10SM CLR 07/01 A2987 RMK AO2 T00720009
Observed Flight Rules
Apr-26 @ 13:35 UTC
(8 minutes ago)
VFR
Wind Visibility
340° at 12 knots 10 miles
Clouds
  • Clear skies
Temperature Dewpoint
7°C / 45°F 1°C / 34°F
Humidity Altimeter Pressure
66% 29.87" Hg 1012 hPa